createdAt,value
2018-11-14T00:01:24.410Z,27.24
2018-11-14T00:07:19.402Z,25.99
2018-11-14T00:13:14.408Z,28.94
2018-11-14T00:19:09.486Z,37.38
2018-11-14T00:25:04.430Z,36.31
2018-11-14T00:30:59.432Z,44.03
2018-11-14T00:36:54.461Z,37.23
2018-11-14T00:42:49.438Z,37.5
2018-11-14T00:48:44.419Z,39.54
2018-11-14T00:54:39.458Z,30.97
2018-11-14T01:00:34.448Z,23.51
2018-11-14T01:06:29.439Z,25.66
2018-11-14T01:12:24.436Z,25.17
2018-11-14T01:18:19.473Z,23.47
2018-11-14T01:24:14.489Z,19.7
2018-11-14T01:30:09.461Z,24.97
2018-11-14T01:36:04.476Z,22.84
2018-11-14T01:41:59.463Z,25.03
2018-11-14T01:47:54.486Z,19.4
2018-11-14T01:53:49.452Z,20.1
2018-11-14T01:59:44.467Z,32.39
2018-11-14T02:05:39.520Z,33.83
2018-11-14T02:11:34.477Z,30.19
2018-11-14T02:17:29.481Z,31.69
2018-11-14T02:23:24.497Z,31.91
2018-11-14T02:29:19.503Z,31.7
2018-11-14T02:35:14.564Z,32.52
2018-11-14T02:41:09.498Z,31.29
2018-11-14T02:47:04.501Z,25.74
2018-11-14T02:52:59.494Z,27.33
2018-11-14T02:58:54.518Z,26.23
2018-11-14T03:04:49.525Z,28.76
2018-11-14T03:10:44.497Z,29.2
2018-11-14T03:16:39.501Z,31.44
2018-11-14T03:22:34.519Z,27.45
2018-11-14T03:28:29.513Z,27.8
2018-11-14T03:34:24.548Z,27.21
2018-11-14T03:40:19.548Z,28.14
2018-11-14T03:46:14.557Z,28.79
2018-11-14T03:52:09.544Z,32.44
2018-11-14T03:58:04.590Z,34.15
2018-11-14T04:03:59.550Z,42.1
2018-11-14T04:09:54.531Z,47.5
2018-11-14T04:15:49.566Z,51.83
2018-11-14T04:21:44.554Z,48.93
2018-11-14T04:27:39.594Z,50.27
2018-11-14T04:33:34.560Z,45.18
2018-11-14T04:39:29.578Z,54.48
2018-11-14T04:45:24.584Z,54.23
2018-11-14T04:51:19.592Z,50.94
2018-11-14T04:57:14.576Z,48.1
2018-11-14T05:03:09.571Z,50.92
2018-11-14T05:09:04.622Z,46.67
2018-11-14T05:14:59.621Z,47.02
2018-11-14T05:20:54.592Z,46.51
2018-11-14T05:26:49.597Z,44.48
2018-11-14T05:32:44.598Z,46.78
2018-11-14T05:38:39.610Z,48.14
2018-11-14T05:44:34.619Z,53.35
2018-11-14T05:50:29.635Z,53.15
2018-11-14T05:56:24.607Z,53.55
2018-11-14T06:02:19.671Z,50.67
2018-11-14T06:08:14.626Z,46.84
2018-11-14T06:14:09.688Z,50.6
2018-11-14T06:20:04.618Z,56.66
2018-11-14T06:25:59.634Z,41.92
2018-11-14T06:31:54.641Z,42.31
2018-11-14T06:37:49.626Z,40.78
2018-11-14T06:43:44.627Z,41.68
2018-11-14T06:49:39.640Z,43.27
2018-11-14T06:55:34.634Z,40.62
2018-11-14T07:01:29.699Z,38.04
2018-11-14T07:07:24.698Z,36.82
2018-11-14T07:13:19.669Z,34.42
2018-11-14T07:19:14.653Z,34.07
2018-11-14T07:25:09.668Z,40.52
2018-11-14T07:31:04.669Z,37.84
2018-11-14T07:36:59.682Z,39.05
2018-11-14T07:42:54.695Z,44.32
2018-11-14T07:48:49.716Z,44.12
2018-11-14T07:54:44.801Z,45.13
2018-11-14T08:00:39.740Z,45.73
2018-11-14T08:06:34.705Z,46.04
2018-11-14T08:12:29.697Z,42.61
2018-11-14T08:18:24.730Z,40.81
2018-11-14T08:24:19.706Z,45.18
2018-11-14T08:30:14.709Z,52.98
2018-11-14T08:36:09.740Z,47.8
2018-11-14T08:42:04.718Z,43.98
2018-11-14T08:47:59.737Z,43.3
2018-11-14T08:53:54.755Z,44.6
2018-11-14T08:59:49.721Z,43.99
2018-11-14T09:05:44.740Z,43.62
2018-11-14T09:17:34.747Z,41.01
2018-11-14T09:17:34.765Z,41.1
2018-11-14T09:23:29.767Z,42.18
2018-11-14T09:29:24.751Z,40.79
2018-11-14T09:35:19.731Z,45.77
2018-11-14T09:47:09.777Z,53.37
2018-11-14T09:47:09.805Z,43.65
2018-11-14T10:10:49.820Z,45.53
2018-11-14T10:10:49.830Z,47.82
2018-11-14T10:10:49.870Z,47.82
2018-11-14T10:10:49.870Z,47.82
2018-11-14T10:16:44.810Z,47.71
2018-11-14T10:22:39.789Z,48.57
2018-11-14T10:28:34.791Z,45.55
2018-11-14T10:34:29.789Z,51.59
2018-11-14T10:40:24.795Z,46.61
2018-11-14T10:46:19.872Z,47.04
2018-11-14T10:52:14.798Z,46.8
2018-11-14T10:58:09.895Z,50.92
2018-11-14T11:04:04.803Z,45.47
2018-11-14T11:09:59.833Z,44.4
2018-11-14T11:15:54.833Z,45.16
2018-11-14T11:21:49.815Z,44.89
2018-11-14T11:27:44.817Z,42.86
2018-11-14T11:33:39.821Z,42.35
2018-11-14T11:39:34.833Z,41.24
2018-11-14T11:45:29.830Z,42.62
2018-11-14T11:51:24.872Z,39
2018-11-14T11:57:19.877Z,36.09
2018-11-14T12:03:14.860Z,35.86
2018-11-14T12:09:09.852Z,35.88
2018-11-14T12:15:04.844Z,34.39
2018-11-14T12:20:59.934Z,35.79
2018-11-14T12:26:54.874Z,33.39
2018-11-14T12:32:49.908Z,32.7
2018-11-14T12:38:44.996Z,31.29
2018-11-14T12:44:39.900Z,31.37
2018-11-14T12:50:34.888Z,29.91
2018-11-14T12:56:29.915Z,26.07
2018-11-14T13:02:24.877Z,25.02
2018-11-14T13:08:19.872Z,21.77
2018-11-14T13:14:14.931Z,22.32
2018-11-14T13:20:09.902Z,22.6
2018-11-14T13:26:04.894Z,23.14
2018-11-14T13:31:59.894Z,22.7
2018-11-14T13:37:54.926Z,23.45
2018-11-14T13:43:49.917Z,24.58
2018-11-14T13:49:45.117Z,24.51
2018-11-14T13:55:39.919Z,25.31
2018-11-14T14:01:34.911Z,27.03
2018-11-14T14:07:29.985Z,28.15
2018-11-14T14:13:24.931Z,26.46
2018-11-14T14:19:19.948Z,28.99
2018-11-14T14:25:14.945Z,29.94
2018-11-14T14:31:09.935Z,28.78
2018-11-14T14:37:04.937Z,26.9
2018-11-14T14:43:00.034Z,21.39
2018-11-14T14:48:55.186Z,14.91
2018-11-14T14:54:50.013Z,14.58
2018-11-14T15:00:44.973Z,13.28
2018-11-14T15:06:39.967Z,13.92
2018-11-14T15:12:34.967Z,14.91
2018-11-14T15:18:30.067Z,15.21
2018-11-14T15:24:25.017Z,15.68
2018-11-14T15:30:20.004Z,14.91
2018-11-14T15:36:15.014Z,14.83
2018-11-14T15:42:09.977Z,15.5
2018-11-14T15:48:05.002Z,14.48
2018-11-14T15:54:00.017Z,14.62
2018-11-14T15:59:55.044Z,21.64
2018-11-14T16:05:50.005Z,14.68
2018-11-14T16:11:45.032Z,15.22
2018-11-14T16:17:40.037Z,14.41
2018-11-14T16:23:35.027Z,14.83
2018-11-14T16:29:30.030Z,15.29
2018-11-14T16:35:25.018Z,16.09
2018-11-14T16:41:20.043Z,17.82
2018-11-14T16:47:15.064Z,17.47
2018-11-14T16:53:10.077Z,17.55
2018-11-14T16:59:05.079Z,18.22
2018-11-14T17:05:00.036Z,17.89
2018-11-14T17:10:55.093Z,16.23
2018-11-14T17:16:50.067Z,16.45
2018-11-14T17:22:45.103Z,18.42
2018-11-14T17:28:40.062Z,18.16
2018-11-14T17:34:35.074Z,17.68
2018-11-14T17:40:30.090Z,15.93
2018-11-14T17:46:25.102Z,14.86
2018-11-14T17:52:20.125Z,16.67
2018-11-14T17:58:15.080Z,16.28
2018-11-14T18:04:10.087Z,15.16
2018-11-14T18:10:05.104Z,14.7
2018-11-14T18:16:00.103Z,13.57
2018-11-14T18:21:55.101Z,16.17
2018-11-14T18:27:50.288Z,14.28
2018-11-14T18:33:45.110Z,14.79
2018-11-14T18:39:40.128Z,15.72
2018-11-14T18:45:35.174Z,14.37
2018-11-14T18:51:30.112Z,14.71
2018-11-14T18:57:25.130Z,14.17
2018-11-14T19:03:20.121Z,14.56
2018-11-14T19:09:15.129Z,14.32
2018-11-14T19:15:10.181Z,16.51
2018-11-14T19:21:05.146Z,15.29
2018-11-14T19:27:00.150Z,16.7
2018-11-14T19:32:55.137Z,17.11
2018-11-14T19:38:50.166Z,15.07
2018-11-14T19:44:45.140Z,14.81
2018-11-14T19:50:40.292Z,14.2
2018-11-14T19:56:35.164Z,13.71
2018-11-14T20:02:30.181Z,13.23
2018-11-14T20:08:25.158Z,12.22
2018-11-14T20:14:20.250Z,13.17
2018-11-14T20:20:15.179Z,15.7
2018-11-14T20:26:10.205Z,14.38
2018-11-14T20:32:05.196Z,14.18
2018-11-14T20:38:00.236Z,18.4
2018-11-14T20:43:55.196Z,17.58
2018-11-14T20:49:50.196Z,15.83
2018-11-14T20:55:45.214Z,18.79
2018-11-14T21:01:40.226Z,19.2
2018-11-14T21:07:35.228Z,19.36
2018-11-14T21:13:30.203Z,17.94
2018-11-14T21:19:25.207Z,17.11
2018-11-14T21:25:20.250Z,15.73
2018-11-14T21:31:15.222Z,16.01
2018-11-14T21:37:10.210Z,15.48
2018-11-14T21:43:05.226Z,15.12
2018-11-14T21:49:00.231Z,20.4
2018-11-14T21:54:55.238Z,13.9
2018-11-14T22:00:50.250Z,14.18
2018-11-14T22:06:45.337Z,13.18
2018-11-14T22:12:40.256Z,12.34
2018-11-14T22:18:35.277Z,14.36
2018-11-14T22:24:30.244Z,12.45
2018-11-14T22:30:25.251Z,12.96
2018-11-14T22:36:20.249Z,14.5
2018-11-14T22:42:15.245Z,13.26
2018-11-14T22:48:10.300Z,16.37
2018-11-14T22:54:05.311Z,15.56
2018-11-14T23:00:00.287Z,16.69
2018-11-14T23:05:55.271Z,14.79
2018-11-14T23:11:50.317Z,13.57
2018-11-14T23:17:45.273Z,13.7
2018-11-14T23:23:40.281Z,15.08
2018-11-14T23:29:35.289Z,14.43
2018-11-14T23:35:30.345Z,14.15
2018-11-14T23:41:25.285Z,16.71
2018-11-14T23:47:20.294Z,16.83
2018-11-14T23:53:15.309Z,15.59
2018-11-14T23:59:10.308Z,17.34
